Time;durP1;ratioP1;P1;durP2;ratioP2;P2;SDS_P1;SDS_P2;PMS_P1;PMS_P2;Temp;Humidity;BMP_temperature;BMP_pressure;BME280_temperature;BME280_humidity;BME280_pressure;Samples;Min_cycle;Max_cycle;Signal;HPM_P1;HPM_P2
2021/06/29 00:00:46;;;;;;;2.63;2.08;;;24.70;59.10;;;;;;4964464;28;20403;-64
2021/06/29 00:03:11;;;;;;;2.58;2.00;;;24.70;59.10;;;;;;4963186;28;20499;-64
2021/06/29 00:05:38;;;;;;;2.30;2.00;;;24.70;58.90;;;;;;4963986;28;20395;-63
2021/06/29 00:08:06;;;;;;;3.88;2.15;;;24.70;59.00;;;;;;4963327;28;20420;-64
2021/06/29 00:10:33;;;;;;;2.40;2.20;;;24.70;58.90;;;;;;4964033;28;20560;-63
2021/06/29 00:12:59;;;;;;;2.58;2.20;;;24.70;59.10;;;;;;4964178;28;20389;-64
2021/06/29 00:15:26;;;;;;;3.03;2.30;;;24.70;59.00;;;;;;4964219;28;20450;-63
2021/06/29 00:17:52;;;;;;;2.22;2.00;;;24.70;59.00;;;;;;4963694;28;20434;-63
2021/06/29 00:20:18;;;;;;;2.20;1.98;;;24.70;59.00;;;;;;4964572;28;20503;-63
2021/06/29 00:22:45;;;;;;;3.00;2.17;;;24.60;58.80;;;;;;4963811;28;20484;-64
2021/06/29 00:25:12;;;;;;;2.63;2.10;;;24.70;58.90;;;;;;4963619;28;20396;-63
2021/06/29 00:27:38;;;;;;;2.50;1.90;;;24.60;58.90;;;;;;4962205;28;20406;-65
2021/06/29 00:30:05;;;;;;;2.30;2.00;;;24.60;58.90;;;;;;4963937;28;20491;-64
2021/06/29 00:32:31;;;;;;;1.85;1.65;;;24.60;58.90;;;;;;4963896;28;20940;-65
2021/06/29 00:34:57;;;;;;;2.77;2.10;;;24.60;58.80;;;;;;4964190;28;20871;-64
2021/06/29 00:37:22;;;;;;;2.33;2.10;;;24.60;58.80;;;;;;4963633;28;21140;-64
2021/06/29 00:39:48;;;;;;;2.13;1.92;;;24.60;58.80;;;;;;4962275;28;20885;-63
2021/06/29 00:42:14;;;;;;;2.40;1.85;;;24.70;58.80;;;;;;4963967;28;20407;-63
2021/06/29 00:44:40;;;;;;;2.57;1.70;;;24.60;58.80;;;;;;4963895;28;20403;-63
2021/06/29 00:47:09;;;;;;;2.33;1.90;;;24.60;58.80;;;;;;4963859;28;20398;-63
2021/06/29 00:49:35;;;;;;;2.22;1.80;;;24.60;58.80;;;;;;4963921;28;20404;-64
2021/06/29 00:52:01;;;;;;;2.40;1.85;;;24.60;58.80;;;;;;4968246;28;20512;-63
2021/06/29 00:54:27;;;;;;;1.92;1.73;;;24.60;58.80;;;;;;4968113;28;20841;-63
2021/06/29 00:56:53;;;;;;;2.17;1.80;;;24.60;58.80;;;;;;4967522;28;20396;-63
2021/06/29 00:59:19;;;;;;;2.20;1.80;;;24.60;58.70;;;;;;4966242;28;20435;-64
2021/06/29 01:01:45;;;;;;;2.07;1.70;;;24.60;58.70;;;;;;4967150;28;20392;-66
2021/06/29 01:04:10;;;;;;;2.38;1.73;;;24.60;58.70;;;;;;4967657;28;20404;-63
2021/06/29 01:06:38;;;;;;;2.10;1.80;;;24.60;58.70;;;;;;4967188;28;20458;-63
2021/06/29 01:09:04;;;;;;;1.90;1.60;;;24.60;58.70;;;;;;4967498;28;20487;-64
2021/06/29 01:11:30;;;;;;;2.17;1.80;;;24.60;58.70;;;;;;4967391;28;20400;-63
2021/06/29 01:14:08;;;;;;;2.03;1.60;;;24.60;58.60;;;;;;4966999;28;20508;-63
2021/06/29 01:16:33;;;;;;;2.40;1.73;;;24.60;58.60;;;;;;4967887;28;20951;-64
2021/06/29 01:18:59;;;;;;;1.77;1.60;;;24.60;58.70;;;;;;4967250;28;20526;-63
2021/06/29 01:21:24;;;;;;;2.00;1.80;;;24.60;58.70;;;;;;4967407;28;20423;-63
2021/06/29 01:23:54;;;;;;;2.03;1.60;;;24.60;58.60;;;;;;4966554;28;20902;-65
2021/06/29 01:26:24;;;;;;;2.20;1.70;;;24.60;58.60;;;;;;4982387;28;20399;-63
2021/06/29 01:29:00;;;;;;;2.30;1.70;;;24.60;58.60;;;;;;4967204;28;20489;-63
2021/06/29 01:31:26;;;;;;;2.33;1.65;;;24.60;58.60;;;;;;4966929;28;20400;-63
2021/06/29 01:33:52;;;;;;;1.92;1.50;;;24.60;58.60;;;;;;4966893;28;20407;-63
2021/06/29 01:36:20;;;;;;;1.93;1.50;;;24.60;58.60;;;;;;4966928;28;20407;-63
2021/06/29 01:38:47;;;;;;;1.83;1.40;;;24.60;58.50;;;;;;4966924;28;20427;-63
2021/06/29 01:41:15;;;;;;;1.80;1.55;;;24.60;58.60;;;;;;4966441;28;20963;-63
2021/06/29 01:46:16;;;;;;;1.73;1.50;;;24.50;58.50;;;;;;4966892;28;20380;-63
2021/06/29 01:48:50;;;;;;;1.75;1.50;;;24.50;58.50;;;;;;4967170;28;20472;-63
2021/06/29 01:51:16;;;;;;;2.00;1.50;;;24.60;58.50;;;;;;4967141;28;20404;-63
2021/06/29 01:53:43;;;;;;;1.70;1.50;;;24.60;58.50;;;;;;4966492;28;20404;-64
2021/06/29 01:56:14;;;;;;;2.30;1.65;;;24.50;58.50;;;;;;4966505;28;20384;-63
2021/06/29 01:58:50;;;;;;;1.83;1.40;;;24.60;58.50;;;;;;4966827;28;20427;-63
2021/06/29 02:01:16;;;;;;;1.63;1.45;;;24.50;58.40;;;;;;4966404;28;20397;-64
2021/06/29 02:03:42;;;;;;;1.87;1.60;;;24.50;58.40;;;;;;4965991;28;20495;-63
2021/06/29 02:06:07;;;;;;;1.90;1.70;;;24.50;58.50;;;;;;4966232;28;20563;-63
2021/06/29 02:08:33;;;;;;;1.47;1.30;;;24.50;58.50;;;;;;4966782;28;20441;-64
2021/06/29 02:10:59;;;;;;;1.70;1.50;;;24.50;58.50;;;;;;4966617;28;20396;-63
2021/06/29 02:13:25;;;;;;;2.17;1.27;;;24.50;58.40;;;;;;4966509;28;21027;-62
2021/06/29 02:15:51;;;;;;;1.60;1.40;;;24.50;58.40;;;;;;4965580;28;20393;-63
2021/06/29 02:18:17;;;;;;;1.90;1.38;;;24.50;58.40;;;;;;4981390;28;20782;-63
2021/06/29 02:20:43;;;;;;;1.70;1.40;;;24.50;58.40;;;;;;4966229;28;20876;-64
2021/06/29 02:23:09;;;;;;;1.67;1.30;;;24.50;58.40;;;;;;4966353;28;20498;-63
2021/06/29 02:25:35;;;;;;;1.70;1.50;;;24.50;58.40;;;;;;4965618;28;20385;-63
2021/06/29 02:28:02;;;;;;;1.90;1.48;;;24.50;58.40;;;;;;4965891;28;20880;-63
2021/06/29 02:30:27;;;;;;;1.60;1.40;;;24.50;58.40;;;;;;4981008;28;20404;-63
2021/06/29 02:32:53;;;;;;;1.75;1.40;;;24.50;58.40;;;;;;4965932;28;20443;-63
2021/06/29 02:35:18;;;;;;;2.00;1.40;;;24.50;58.40;;;;;;4965720;28;20771;-63
2021/06/29 02:37:44;;;;;;;2.40;1.30;;;24.50;58.40;;;;;;4965437;28;20875;-63
2021/06/29 02:40:10;;;;;;;1.87;1.40;;;24.50;58.40;;;;;;4966056;28;20456;-63
2021/06/29 02:42:37;;;;;;;1.70;1.38;;;24.50;58.40;;;;;;4965836;28;21030;-64
2021/06/29 02:45:07;;;;;;;1.85;1.30;;;24.50;58.40;;;;;;4965636;28;20407;-63
2021/06/29 02:47:35;;;;;;;1.47;1.37;;;24.50;58.40;;;;;;4966074;28;20876;-64
2021/06/29 02:50:01;;;;;;;1.67;1.27;;;24.50;58.40;;;;;;4965807;28;20384;-63
2021/06/29 02:52:27;;;;;;;1.50;1.20;;;24.50;58.40;;;;;;4964609;28;20408;-63
2021/06/29 02:54:53;;;;;;;1.55;1.27;;;24.40;58.30;;;;;;4964851;28;20911;-63
2021/06/29 02:57:19;;;;;;;1.63;1.40;;;24.50;58.40;;;;;;4965566;28;20438;-63
2021/06/29 02:59:44;;;;;;;1.65;1.30;;;24.50;58.40;;;;;;4965210;28;20430;-63
2021/06/29 03:02:10;;;;;;;1.77;1.27;;;24.40;58.40;;;;;;4965715;28;20734;-63
2021/06/29 03:04:35;;;;;;;1.40;1.20;;;24.40;58.30;;;;;;4965446;28;20741;-63
2021/06/29 03:07:01;;;;;;;1.33;1.15;;;24.50;58.40;;;;;;4980283;28;20424;-64
2021/06/29 03:09:27;;;;;;;2.13;1.30;;;24.40;58.30;;;;;;4965493;28;20908;-63
2021/06/29 03:11:52;;;;;;;2.93;1.47;;;24.40;58.60;;;;;;4964858;28;20454;-63
2021/06/29 03:14:18;;;;;;;2.00;1.27;;;24.40;58.70;;;;;;4965107;28;20408;-63
2021/06/29 03:16:44;;;;;;;2.10;1.30;;;24.40;58.60;;;;;;4963748;28;20757;-64
2021/06/29 03:19:10;;;;;;;1.75;1.27;;;24.40;58.90;;;;;;4965334;28;21040;-64
2021/06/29 03:21:35;;;;;;;2.90;1.30;;;24.40;58.90;;;;;;4964964;28;21229;-62
2021/06/29 03:24:01;;;;;;;2.78;1.38;;;24.40;60.30;;;;;;4964982;28;20403;-63
2021/06/29 03:26:27;;;;;;;3.00;1.30;;;24.50;60.20;;;;;;4963187;28;20411;-63
2021/06/29 03:28:52;;;;;;;3.78;1.30;;;24.50;60.20;;;;;;4965404;28;20495;-64
2021/06/29 03:31:18;;;;;;;3.13;1.23;;;24.60;61.10;;;;;;4964701;28;20392;-64
2021/06/29 03:33:44;;;;;;;2.47;1.40;;;24.60;60.10;;;;;;4964162;28;20404;-65
2021/06/29 03:36:10;;;;;;;3.78;1.40;;;24.50;59.10;;;;;;4964455;28;20408;-64
2021/06/29 03:38:36;;;;;;;2.17;1.47;;;24.40;59.00;;;;;;4964106;28;20506;-64
2021/06/29 03:41:03;;;;;;;1.77;1.50;;;24.50;59.00;;;;;;4964864;28;20395;-65
2021/06/29 03:43:28;;;;;;;4.20;1.40;;;24.40;58.80;;;;;;4964397;28;20766;-63
2021/06/29 03:45:54;;;;;;;3.55;1.50;;;24.40;58.90;;;;;;4964516;28;20420;-63
2021/06/29 03:48:19;;;;;;;2.60;1.37;;;24.40;58.80;;;;;;4964640;28;20428;-64
2021/06/29 03:50:45;;;;;;;1.90;1.40;;;24.40;58.50;;;;;;4964610;28;20528;-64
2021/06/29 03:53:11;;;;;;;2.25;1.20;;;24.40;58.40;;;;;;4964657;28;20552;-63
2021/06/29 03:55:36;;;;;;;2.07;1.30;;;24.40;58.30;;;;;;4964570;28;20454;-64
2021/06/29 03:58:03;;;;;;;2.60;1.43;;;24.40;58.40;;;;;;4963836;28;20495;-63
2021/06/29 04:00:28;;;;;;;4.57;1.30;;;24.40;58.40;;;;;;4964591;28;21411;-64
2021/06/29 04:02:54;;;;;;;2.80;1.20;;;24.40;58.80;;;;;;4979677;28;20396;-63
2021/06/29 04:05:19;;;;;;;4.37;1.60;;;24.40;59.10;;;;;;4964488;28;20813;-63
2021/06/29 04:07:47;;;;;;;4.10;1.45;;;24.40;59.40;;;;;;4964463;28;20753;-62
2021/06/29 04:10:13;;;;;;;3.45;1.40;;;24.40;58.90;;;;;;4963916;28;20880;-63
2021/06/29 04:12:39;;;;;;;5.40;1.35;;;24.40;59.00;;;;;;4963893;28;20403;-63
2021/06/29 04:15:06;;;;;;;6.57;1.97;;;24.40;58.80;;;;;;4964114;28;20400;-63
2021/06/29 04:17:32;;;;;;;10.63;1.98;;;24.40;58.70;;;;;;4964264;28;20403;-62
2021/06/29 04:19:58;;;;;;;4.85;1.33;;;24.40;58.70;;;;;;4963928;28;20399;-62
2021/06/29 04:22:23;;;;;;;6.10;1.67;;;24.40;58.70;;;;;;4963907;28;20439;-62
2021/06/29 04:24:49;;;;;;;5.78;1.40;;;24.40;59.20;;;;;;4963481;28;20393;-62
2021/06/29 04:27:15;;;;;;;3.40;1.43;;;24.40;58.70;;;;;;4979169;28;20432;-62
2021/06/29 04:29:41;;;;;;;3.00;1.40;;;24.40;59.40;;;;;;4964062;28;20384;-63
2021/06/29 04:32:07;;;;;;;4.10;1.38;;;24.40;58.50;;;;;;4964069;28;20764;-63
2021/06/29 04:34:33;;;;;;;4.40;1.60;;;24.40;58.80;;;;;;4963933;28;20411;-62
2021/06/29 04:36:59;;;;;;;4.07;1.30;;;24.30;58.40;;;;;;4963617;28;20428;-63
2021/06/29 04:39:24;;;;;;;3.13;1.13;;;24.30;58.60;;;;;;4963958;28;20431;-62
2021/06/29 04:41:50;;;;;;;3.00;1.30;;;24.40;58.70;;;;;;4963524;28;20385;-65
2021/06/29 04:44:15;;;;;;;3.30;1.30;;;24.40;58.60;;;;;;4963971;28;20400;-63
2021/06/29 04:46:41;;;;;;;2.08;1.27;;;24.30;58.50;;;;;;4963850;28;20392;-63
2021/06/29 04:49:07;;;;;;;3.10;1.27;;;24.30;58.50;;;;;;4963676;28;20404;-65
2021/06/29 04:51:32;;;;;;;1.90;1.23;;;24.30;58.50;;;;;;4964382;28;20435;-65
2021/06/29 04:53:58;;;;;;;2.20;1.20;;;24.30;59.10;;;;;;4963661;28;20439;-62
2021/06/29 04:56:24;;;;;;;3.10;1.20;;;24.30;58.50;;;;;;4964172;28;20916;-63
2021/06/29 04:58:53;;;;;;;2.00;1.20;;;24.30;58.40;;;;;;4963794;28;20424;-62
2021/06/29 05:01:23;;;;;;;2.40;1.13;;;24.30;58.40;;;;;;4963892;28;20512;-64
2021/06/29 05:03:49;;;;;;;2.63;1.17;;;24.30;58.50;;;;;;4959417;28;20915;-63
2021/06/29 05:06:18;;;;;;;4.10;1.30;;;24.30;58.40;;;;;;4962797;28;20400;-63
2021/06/29 05:08:44;;;;;;;5.83;1.40;;;24.40;58.50;;;;;;4962836;28;20400;-64
2021/06/29 05:11:10;;;;;;;3.80;1.13;;;24.30;58.60;;;;;;4963353;28;20841;-63
2021/06/29 05:13:36;;;;;;;3.00;1.20;;;24.30;58.50;;;;;;4963132;28;20563;-64
2021/06/29 05:16:02;;;;;;;2.53;1.27;;;24.30;58.50;;;;;;4962999;28;20404;-63
2021/06/29 05:18:27;;;;;;;3.78;1.10;;;24.30;58.50;;;;;;4963186;28;20478;-63
2021/06/29 05:20:56;;;;;;;1.87;1.07;;;24.30;58.50;;;;;;4963613;28;20406;-63
2021/06/29 05:23:22;;;;;;;2.83;1.10;;;24.30;58.60;;;;;;4963927;28;20397;-63
2021/06/29 05:25:48;;;;;;;4.18;1.00;;;24.30;58.60;;;;;;4963101;28;21227;-63
2021/06/29 05:28:17;;;;;;;3.33;1.15;;;24.30;58.60;;;;;;4963338;28;20427;-63
2021/06/29 05:30:44;;;;;;;2.10;1.10;;;24.30;58.50;;;;;;4963315;28;20400;-63
2021/06/29 05:33:10;;;;;;;3.05;1.17;;;24.30;58.60;;;;;;4963633;28;20384;-63
2021/06/29 05:35:35;;;;;;;4.75;1.10;;;24.30;58.50;;;;;;4963087;28;20502;-63
2021/06/29 05:38:01;;;;;;;1.40;1.02;;;24.30;58.60;;;;;;4979996;28;20424;-63
2021/06/29 05:40:28;;;;;;;2.87;1.20;;;24.30;58.60;;;;;;4967067;28;20461;-66
2021/06/29 05:42:54;;;;;;;2.10;1.10;;;24.30;58.60;;;;;;4967171;28;20396;-63
2021/06/29 05:45:19;;;;;;;2.23;0.97;;;24.30;58.60;;;;;;4981554;28;20393;-64
2021/06/29 05:47:46;;;;;;;1.50;0.90;;;24.30;58.60;;;;;;4966815;28;20392;-64
2021/06/29 05:50:13;;;;;;;2.60;1.20;;;24.30;58.50;;;;;;4966716;28;20392;-63
2021/06/29 05:52:39;;;;;;;2.05;0.98;;;24.30;58.60;;;;;;4966502;28;20398;-64
2021/06/29 05:55:07;;;;;;;2.30;1.10;;;24.30;58.70;;;;;;4966841;28;20463;-63
2021/06/29 05:57:33;;;;;;;2.30;0.95;;;24.30;58.60;;;;;;4966372;28;20401;-63
2021/06/29 05:59:59;;;;;;;1.40;1.00;;;24.30;58.50;;;;;;4966286;28;20436;-63
2021/06/29 06:02:24;;;;;;;1.20;0.90;;;24.30;58.50;;;;;;4966832;28;20396;-64
2021/06/29 06:04:50;;;;;;;2.00;0.90;;;24.30;58.60;;;;;;4966658;28;20400;-64
2021/06/29 06:07:16;;;;;;;1.50;1.00;;;24.30;58.50;;;;;;4967014;28;20397;-63
2021/06/29 06:09:41;;;;;;;1.53;1.10;;;24.30;58.50;;;;;;4966569;28;20400;-64
2021/06/29 06:12:07;;;;;;;2.10;1.00;;;24.30;58.50;;;;;;4981170;28;20404;-64
2021/06/29 06:14:33;;;;;;;1.30;0.90;;;24.30;58.50;;;;;;4966233;28;20409;-64
2021/06/29 06:16:59;;;;;;;1.35;1.00;;;24.30;58.50;;;;;;4966514;28;20751;-63
2021/06/29 06:19:25;;;;;;;1.47;0.90;;;24.30;58.50;;;;;;4966147;28;20459;-64
2021/06/29 06:21:50;;;;;;;1.70;0.90;;;24.30;58.50;;;;;;4965934;28;20856;-63
2021/06/29 06:24:16;;;;;;;1.40;1.00;;;24.30;58.50;;;;;;4949184;28;20419;-63
2021/06/29 06:26:42;;;;;;;1.27;1.00;;;24.30;58.50;;;;;;4966356;28;20450;-63
2021/06/29 06:29:08;;;;;;;1.45;1.00;;;24.30;58.50;;;;;;4966131;28;21074;-64
2021/06/29 06:31:33;;;;;;;1.37;0.80;;;24.30;58.50;;;;;;4981192;28;20392;-63
2021/06/29 06:33:59;;;;;;;2.03;0.90;;;24.30;58.50;;;;;;4965883;28;20433;-63
2021/06/29 06:36:25;;;;;;;1.60;0.93;;;24.20;58.50;;;;;;4965675;28;20412;-63
2021/06/29 06:38:50;;;;;;;1.30;0.90;;;24.30;58.50;;;;;;4965916;28;20435;-63
2021/06/29 06:41:16;;;;;;;1.55;1.05;;;24.30;58.50;;;;;;4965730;28;20431;-63
2021/06/29 06:43:43;;;;;;;1.27;0.80;;;24.30;58.50;;;;;;4966065;28;20479;-63
2021/06/29 06:46:09;;;;;;;1.63;1.00;;;24.30;58.50;;;;;;4964573;28;20451;-64
2021/06/29 06:48:36;;;;;;;1.65;0.90;;;24.30;58.50;;;;;;4965743;28;20411;-63
2021/06/29 06:51:04;;;;;;;1.85;0.90;;;24.20;58.50;;;;;;4965958;28;20396;-62
2021/06/29 06:53:29;;;;;;;1.90;0.80;;;24.30;58.50;;;;;;4965673;28;20463;-63
2021/06/29 06:55:55;;;;;;;1.00;0.80;;;24.30;58.40;;;;;;4965382;28;20396;-63
2021/06/29 06:58:21;;;;;;;1.45;0.90;;;24.30;58.50;;;;;;4965389;28;20438;-63
2021/06/29 07:00:46;;;;;;;1.67;1.00;;;24.30;58.50;;;;;;4965952;28;20443;-62
2021/06/29 07:03:12;;;;;;;1.30;0.93;;;24.30;58.40;;;;;;4965604;28;20404;-63
2021/06/29 07:05:37;;;;;;;1.10;0.90;;;24.20;58.70;;;;;;4965336;28;20809;-63
2021/06/29 07:08:03;;;;;;;1.60;0.90;;;24.20;58.40;;;;;;4965408;28;20389;-63
2021/06/29 07:10:29;;;;;;;1.33;0.90;;;24.20;58.40;;;;;;4965177;28;20427;-62
2021/06/29 07:12:55;;;;;;;1.20;0.90;;;24.20;58.40;;;;;;4965478;28;20439;-63
2021/06/29 07:15:21;;;;;;;1.10;0.87;;;24.20;58.40;;;;;;4965440;28;20420;-63
2021/06/29 07:17:47;;;;;;;1.45;0.90;;;24.30;58.50;;;;;;4964991;28;20416;-63
2021/06/29 07:20:13;;;;;;;1.13;0.80;;;24.20;58.40;;;;;;4979841;28;20419;-63
2021/06/29 07:22:39;;;;;;;1.30;0.80;;;24.30;58.50;;;;;;4963927;28;20403;-63
2021/06/29 07:25:07;;;;;;;2.05;0.80;;;24.20;58.40;;;;;;4963645;28;20404;-62
2021/06/29 07:27:33;;;;;;;1.33;0.90;;;24.20;58.30;;;;;;4965098;28;20392;-63
2021/06/29 07:29:59;;;;;;;0.98;0.70;;;24.20;58.40;;;;;;4964770;28;20397;-63
2021/06/29 07:32:25;;;;;;;1.10;0.82;;;24.20;58.40;;;;;;4965007;28;20396;-63
2021/06/29 07:34:51;;;;;;;1.00;0.80;;;24.20;58.30;;;;;;4964670;28;20467;-64
2021/06/29 07:37:17;;;;;;;1.63;0.85;;;24.20;58.30;;;;;;4965159;28;20399;-62
2021/06/29 07:39:42;;;;;;;1.40;0.90;;;24.20;58.30;;;;;;4965101;28;20527;-62
2021/06/29 07:42:08;;;;;;;1.43;0.80;;;24.20;58.40;;;;;;4964434;28;20914;-63
2021/06/29 07:44:34;;;;;;;1.50;0.90;;;24.20;58.30;;;;;;4964823;28;20400;-64
2021/06/29 07:46:59;;;;;;;1.20;0.80;;;24.20;58.30;;;;;;4963375;28;20400;-64
2021/06/29 07:49:26;;;;;;;1.60;0.80;;;24.20;58.40;;;;;;4965210;28;20428;-63
2021/06/29 07:51:52;;;;;;;1.52;0.88;;;24.20;58.30;;;;;;4964524;28;20547;-63
2021/06/29 07:54:18;;;;;;;1.10;0.80;;;24.20;58.90;;;;;;4963104;28;20511;-63
2021/06/29 07:56:44;;;;;;;0.93;0.80;;;24.20;58.40;;;;;;4964542;28;20399;-63
2021/06/29 07:59:09;;;;;;;1.10;0.90;;;24.20;58.30;;;;;;4964433;28;20431;-64
2021/06/29 08:01:35;;;;;;;1.00;0.90;;;24.20;58.40;;;;;;4978874;28;20392;-63
2021/06/29 08:04:01;;;;;;;1.50;0.88;;;24.20;58.30;;;;;;4964077;28;20392;-63
2021/06/29 08:06:27;;;;;;;1.00;0.80;;;24.20;58.30;;;;;;4964150;28;20428;-63
2021/06/29 08:08:52;;;;;;;1.00;0.80;;;24.20;58.40;;;;;;4964547;28;20887;-63
2021/06/29 08:11:18;;;;;;;1.30;0.90;;;24.20;58.30;;;;;;4964021;28;20872;-63
2021/06/29 08:13:44;;;;;;;1.70;0.80;;;24.20;58.30;;;;;;4964821;28;20899;-64
2021/06/29 08:16:10;;;;;;;1.27;0.83;;;24.20;58.30;;;;;;4963884;28;20431;-63
2021/06/29 08:18:37;;;;;;;1.15;0.80;;;24.20;58.30;;;;;;4964238;28;20432;-64
2021/06/29 08:21:06;;;;;;;1.10;0.80;;;24.20;58.30;;;;;;4963535;28;20457;-63
2021/06/29 08:23:32;;;;;;;1.40;0.80;;;24.20;58.30;;;;;;4964655;28;20400;-63
2021/06/29 08:25:58;;;;;;;1.20;0.80;;;24.20;58.30;;;;;;4964089;28;20384;-63
2021/06/29 08:28:25;;;;;;;1.58;0.90;;;24.20;58.30;;;;;;4964345;28;20385;-63
2021/06/29 08:30:51;;;;;;;1.23;0.80;;;24.20;58.30;;;;;;4964681;28;20389;-65
2021/06/29 08:33:20;;;;;;;1.30;0.90;;;24.20;58.30;;;;;;4963794;28;20969;-62
2021/06/29 08:35:46;;;;;;;0.98;0.77;;;24.20;58.20;;;;;;4964028;28;20885;-63
2021/06/29 08:38:13;;;;;;;1.13;0.80;;;24.20;58.20;;;;;;4963814;28;20432;-62
2021/06/29 08:40:41;;;;;;;1.25;0.80;;;24.20;58.20;;;;;;4962885;28;20906;-63
2021/06/29 08:43:09;;;;;;;1.20;0.80;;;24.20;58.20;;;;;;4964119;28;20408;-63
2021/06/29 08:45:36;;;;;;;1.15;0.80;;;24.20;58.20;;;;;;4964398;28;20388;-63
2021/06/29 08:48:02;;;;;;;1.10;0.70;;;24.20;58.20;;;;;;4963342;28;20423;-63
2021/06/29 08:50:32;;;;;;;1.27;0.82;;;24.20;58.20;;;;;;4963818;28;20486;-63
2021/06/29 08:52:59;;;;;;;1.20;0.80;;;24.20;58.20;;;;;;4963806;28;20404;-64
2021/06/29 08:55:36;;;;;;;1.40;0.80;;;24.20;58.20;;;;;;4963635;28;20422;-64
2021/06/29 08:58:02;;;;;;;1.17;0.77;;;24.20;58.10;;;;;;4963055;28;20515;-63
2021/06/29 09:00:28;;;;;;;1.00;0.80;;;24.20;58.10;;;;;;4963812;28;20400;-64
2021/06/29 09:02:54;;;;;;;1.38;0.90;;;24.20;58.10;;;;;;4962278;28;20404;-63
2021/06/29 09:05:21;;;;;;;1.13;0.70;;;24.20;58.10;;;;;;4963888;28;20400;-63
2021/06/29 09:07:49;;;;;;;1.00;0.70;;;24.30;58.10;;;;;;4962712;28;20415;-63
2021/06/29 09:10:15;;;;;;;1.30;1.00;;;24.30;58.10;;;;;;4963509;28;20411;-63
2021/06/29 09:12:48;;;;;;;1.10;0.82;;;24.30;58.00;;;;;;4967308;28;20408;-63
2021/06/29 09:15:45;;;;;;;1.43;0.80;;;24.30;58.00;;;;;;4968055;28;20428;-63
2021/06/29 09:18:21;;;;;;;1.00;0.60;;;24.30;58.00;;;;;;4966993;28;20421;-62
2021/06/29 09:20:51;;;;;;;1.00;0.82;;;24.30;58.00;;;;;;4967561;28;20808;-63
2021/06/29 09:23:25;;;;;;;1.02;0.80;;;24.30;58.00;;;;;;4967693;28;20395;-63
2021/06/29 09:25:52;;;;;;;1.10;0.88;;;24.30;58.00;;;;;;4966413;28;20758;-63
2021/06/29 09:28:24;;;;;;;1.15;0.80;;;24.30;58.00;;;;;;4966926;28;20392;-63
2021/06/29 09:30:56;;;;;;;1.52;0.85;;;24.30;58.00;;;;;;4967323;28;20468;-63
2021/06/29 09:33:27;;;;;;;1.08;0.85;;;24.30;57.90;;;;;;4967275;28;20389;-63
2021/06/29 09:35:54;;;;;;;1.10;0.77;;;24.30;58.00;;;;;;4966536;28;20416;-63
2021/06/29 09:38:23;;;;;;;1.20;0.80;;;24.30;57.90;;;;;;4966011;28;20498;-63
2021/06/29 09:41:02;;;;;;;1.20;0.80;;;24.30;57.90;;;;;;4964934;28;20431;-62
2021/06/29 09:43:29;;;;;;;1.10;0.65;;;24.30;57.90;;;;;;4966317;28;20392;-63
2021/06/29 09:45:59;;;;;;;1.00;0.80;;;24.30;57.90;;;;;;4966217;28;20396;-63
2021/06/29 09:48:33;;;;;;;1.23;0.70;;;24.30;57.90;;;;;;4966585;28;20773;-63
2021/06/29 09:51:05;;;;;;;1.02;0.80;;;24.30;57.90;;;;;;4965811;28;20400;-63
2021/06/29 09:53:32;;;;;;;1.40;0.80;;;24.30;57.90;;;;;;4966979;28;20428;-64
2021/06/29 09:56:03;;;;;;;1.10;0.70;;;24.30;57.90;;;;;;4965933;28;20813;-63
2021/06/29 09:58:31;;;;;;;1.15;0.80;;;24.30;57.90;;;;;;4966295;28;20427;-64
2021/06/29 10:00:59;;;;;;;1.13;0.75;;;24.30;57.80;;;;;;4966300;28;20699;-63
2021/06/29 10:03:35;;;;;;;0.90;0.60;;;24.30;57.90;;;;;;4966557;28;20410;-64
2021/06/29 10:06:09;;;;;;;1.02;0.80;;;24.30;57.80;;;;;;4965507;28;20479;-63
2021/06/29 10:08:35;;;;;;;0.90;0.77;;;24.30;57.90;;;;;;4966167;28;20479;-64
2021/06/29 10:11:26;;;;;;;1.27;0.70;;;24.30;57.90;;;;;;4966309;28;20403;-63
2021/06/29 10:14:00;;;;;;;1.10;0.77;;;24.30;57.90;;;;;;4980915;28;20402;-63
2021/06/29 10:16:39;;;;;;;1.10;0.80;;;24.30;57.90;;;;;;4965940;28;20385;-63
2021/06/29 10:22:01;;;;;;;1.00;0.80;;;24.30;57.80;;;;;;4966031;28;20431;-63
2021/06/29 10:24:30;;;;;;;0.80;0.60;;;24.30;57.90;;;;;;4964882;28;20448;-63
2021/06/29 10:26:58;;;;;;;1.23;0.70;;;24.30;57.80;;;;;;4966161;28;20470;-63
2021/06/29 10:29:25;;;;;;;0.90;0.70;;;24.30;57.80;;;;;;4965538;28;20503;-65
2021/06/29 10:31:58;;;;;;;1.10;0.82;;;24.30;57.80;;;;;;4965765;28;20864;-63
2021/06/29 10:34:25;;;;;;;1.17;0.77;;;24.30;57.80;;;;;;4965453;28;20496;-63
2021/06/29 10:36:53;;;;;;;1.03;0.80;;;24.30;57.80;;;;;;4964437;28;21215;-66
2021/06/29 10:39:23;;;;;;;1.00;0.80;;;24.30;57.80;;;;;;4964139;28;20510;-65
2021/06/29 10:42:03;;;;;;;1.10;0.90;;;24.30;57.80;;;;;;4964512;28;20410;-64
2021/06/29 10:44:44;;;;;;;1.02;0.70;;;24.30;57.80;;;;;;4965625;28;20403;-63
2021/06/29 10:47:30;;;;;;;1.05;0.75;;;24.30;57.80;;;;;;4965695;28;20531;-65
2021/06/29 10:50:00;;;;;;;0.90;0.70;;;24.30;57.70;;;;;;4965431;28;20695;-64
2021/06/29 10:52:26;;;;;;;1.27;0.77;;;24.30;57.80;;;;;;4965467;28;20419;-63
2021/06/29 10:55:07;;;;;;;1.23;0.85;;;24.30;57.70;;;;;;4965050;28;20904;-64
2021/06/29 10:57:43;;;;;;;1.00;0.80;;;24.30;57.80;;;;;;4964701;28;20396;-63
2021/06/29 11:00:24;;;;;;;1.50;0.80;;;24.30;57.80;;;;;;4964438;28;20880;-65
2021/06/29 11:03:01;;;;;;;1.00;0.80;;;24.30;57.80;;;;;;4965524;28;20392;-64
2021/06/29 11:05:30;;;;;;;1.77;0.80;;;24.30;57.80;;;;;;4965017;28;21560;-63
2021/06/29 11:08:05;;;;;;;1.00;0.80;;;24.30;57.70;;;;;;4964983;28;20914;-63
2021/06/29 11:10:34;;;;;;;1.10;0.80;;;24.40;57.80;;;;;;4964858;28;20400;-62
2021/06/29 11:13:00;;;;;;;1.02;0.70;;;24.30;57.70;;;;;;4964874;28;20895;-64
2021/06/29 11:15:52;;;;;;;1.08;0.70;;;24.40;57.80;;;;;;4965197;28;20411;-66
2021/06/29 11:18:36;;;;;;;1.10;0.90;;;24.40;57.80;;;;;;4964239;28;20747;-63
2021/06/29 11:21:05;;;;;;;1.20;0.90;;;24.30;57.70;;;;;;4965138;28;20471;-63
2021/06/29 11:23:33;;;;;;;1.30;0.90;;;24.40;57.80;;;;;;4964912;28;20384;-63
2021/06/29 11:26:02;;;;;;;1.02;0.70;;;24.40;57.80;;;;;;4964440;28;20400;-63
2021/06/29 11:28:34;;;;;;;1.10;0.80;;;24.40;57.70;;;;;;4964275;28;20392;-64
2021/06/29 11:31:11;;;;;;;1.03;0.70;;;24.40;57.80;;;;;;4964670;28;20765;-63
2021/06/29 11:34:06;;;;;;;1.02;0.70;;;24.40;57.70;;;;;;4963014;28;20912;-63
2021/06/29 11:36:32;;;;;;;1.23;0.85;;;24.40;57.60;;;;;;4964395;28;20466;-65
2021/06/29 11:39:19;;;;;;;0.88;0.70;;;24.40;57.70;;;;;;4964422;28;20455;-64
2021/06/29 11:42:14;;;;;;;1.00;0.80;;;24.40;57.60;;;;;;4972151;28;20400;-63
2021/06/29 11:44:44;;;;;;;0.90;0.70;;;24.40;57.60;;;;;;4964377;28;21123;-63
2021/06/29 11:47:13;;;;;;;1.05;0.80;;;24.40;57.60;;;;;;4964544;28;20392;-64
2021/06/29 11:49:47;;;;;;;1.10;0.90;;;24.40;57.60;;;;;;4964307;28;20408;-63
2021/06/29 11:52:17;;;;;;;1.20;0.80;;;24.40;57.60;;;;;;4962025;28;20408;-65
2021/06/29 11:54:51;;;;;;;1.10;0.80;;;24.50;57.60;;;;;;4969235;28;20418;-65
2021/06/29 11:57:23;;;;;;;1.45;0.77;;;24.40;57.60;;;;;;4963822;28;20803;-64
2021/06/29 11:59:52;;;;;;;1.35;0.80;;;24.40;57.60;;;;;;4960259;28;20436;-64
2021/06/29 12:02:21;;;;;;;3.00;0.80;;;24.40;57.50;;;;;;4961522;28;21236;-66
2021/06/29 12:05:06;;;;;;;4.25;1.00;;;24.40;57.60;;;;;;4962974;28;20411;-68
2021/06/29 12:07:41;;;;;;;3.15;1.00;;;24.40;58.10;;;;;;4978588;28;20412;-62
2021/06/29 12:10:44;;;;;;;1.35;0.85;;;24.50;57.90;;;;;;4964046;28;20411;-63
2021/06/29 12:13:14;;;;;;;1.77;0.90;;;24.50;57.80;;;;;;4965435;28;22273;-63
2021/06/29 12:15:42;;;;;;;1.60;0.95;;;24.50;57.90;;;;;;4960774;28;20395;-64
2021/06/29 12:18:11;;;;;;;2.10;0.93;;;24.50;57.90;;;;;;4957095;28;20420;-62
2021/06/29 12:20:43;;;;;;;1.48;0.90;;;24.50;57.80;;;;;;4959358;28;20419;-64
2021/06/29 12:23:12;;;;;;;1.27;0.82;;;24.60;57.90;;;;;;4962977;28;20952;-64
2021/06/29 12:25:41;;;;;;;1.55;0.82;;;24.60;57.80;;;;;;4979047;28;20419;-62
2021/06/29 12:28:15;;;;;;;1.60;0.90;;;24.60;57.70;;;;;;4964397;28;20400;-63
2021/06/29 12:30:45;;;;;;;1.80;1.00;;;24.60;57.90;;;;;;4964536;28;20491;-64
2021/06/29 12:33:22;;;;;;;1.80;0.93;;;24.60;57.70;;;;;;4962400;28;20391;-63
2021/06/29 12:36:02;;;;;;;1.70;1.00;;;24.60;57.90;;;;;;4963688;28;20424;-63
2021/06/29 12:38:34;;;;;;;1.30;0.90;;;24.60;57.70;;;;;;4963713;28;20434;-62
2021/06/29 12:41:04;;;;;;;2.50;0.90;;;24.50;57.70;;;;;;4964029;28;20396;-63
2021/06/29 12:43:37;;;;;;;2.95;0.93;;;24.60;57.90;;;;;;4963329;28;20426;-63
2021/06/29 12:46:17;;;;;;;1.70;1.10;;;24.60;57.90;;;;;;4965072;28;20403;-63
2021/06/29 12:49:08;;;;;;;1.42;1.05;;;24.60;57.80;;;;;;4967948;28;20399;-64
2021/06/29 12:51:38;;;;;;;1.60;1.02;;;24.70;58.00;;;;;;4968180;28;20396;-63
2021/06/29 12:54:10;;;;;;;2.47;1.13;;;24.60;58.00;;;;;;4968221;28;20406;-63
2021/06/29 12:56:51;;;;;;;2.60;1.30;;;24.60;58.00;;;;;;4967899;28;20438;-65
2021/06/29 12:59:26;;;;;;;1.55;1.10;;;24.70;58.00;;;;;;4967047;28;20508;-63